Time;durP1;ratioP1;P1;durP2;ratioP2;P2;SDS_P1;SDS_P2;PMS_P1;PMS_P2;Temp;Humidity;BMP_temperature;BMP_pressure;BME280_temperature;BME280_humidity;BME280_pressure;Samples;Min_cycle;Max_cycle;Signal;HPM_P1;HPM_P2
2022/10/25 00:01:50;;;;;;;9.90;3.28;;;;;;;12.57;100.00;100975.09;5072290;28;20427;-52
2022/10/25 00:04:18;;;;;;;12.13;3.90;;;;;;;12.58;100.00;100984.66;5073451;28;20056;-50
2022/10/25 00:06:51;;;;;;;11.25;3.80;;;;;;;12.59;100.00;100981.09;5073063;28;20040;-48
2022/10/25 00:09:19;;;;;;;12.68;4.15;;;;;;;12.60;100.00;100982.78;5071654;28;20561;-46
2022/10/25 00:11:47;;;;;;;9.73;3.80;;;;;;;12.62;100.00;100983.50;5070073;28;20418;-50
2022/10/25 00:14:18;;;;;;;10.13;3.72;;;;;;;12.65;100.00;100983.31;5072154;28;20131;-53
2022/10/25 00:16:47;;;;;;;10.10;3.80;;;;;;;12.66;100.00;100989.41;5073379;28;20033;-51
2022/10/25 00:19:18;;;;;;;9.27;3.65;;;;;;;12.63;100.00;100979.91;5072016;28;20047;-51
2022/10/25 00:21:46;;;;;;;9.52;3.58;;;;;;;12.70;100.00;100982.13;5073297;28;20072;-48
2022/10/25 00:24:14;;;;;;;10.57;4.53;;;;;;;12.71;100.00;100983.78;5073342;28;20165;-53
2022/10/25 00:26:43;;;;;;;9.30;3.50;;;;;;;12.75;100.00;100987.88;5073008;28;20056;-48
2022/10/25 00:29:11;;;;;;;9.57;4.00;;;;;;;12.70;100.00;100982.97;5073312;28;20470;-52
2022/10/25 00:31:40;;;;;;;12.90;3.83;;;;;;;12.76;100.00;100986.94;5073313;28;20106;-57
2022/10/25 00:34:13;;;;;;;9.23;4.05;;;;;;;12.77;100.00;100986.84;5071096;28;20163;-57
2022/10/25 00:36:41;;;;;;;10.80;3.58;;;;;;;12.79;100.00;100992.03;5069950;28;20045;-58
2022/10/25 00:39:09;;;;;;;9.65;3.90;;;;;;;12.81;100.00;100992.75;5071637;28;20044;-54
2022/10/25 00:41:37;;;;;;;8.38;3.58;;;;;;;12.79;100.00;100992.03;5070192;28;20487;-53
2022/10/25 00:44:43;;;;;;;10.35;4.00;;;;;;;12.79;100.00;100995.50;5069795;28;20491;-52
2022/10/25 00:47:17;;;;;;;9.57;4.10;;;;;;;12.82;100.00;100989.16;5071418;28;20056;-50
2022/10/25 00:49:49;;;;;;;11.15;4.43;;;;;;;12.80;100.00;101002.47;5071576;28;20045;-51
2022/10/25 00:52:17;;;;;;;10.07;3.95;;;;;;;12.80;100.00;101002.47;5072761;28;20058;-52
2022/10/25 00:54:50;;;;;;;11.30;4.30;;;;;;;12.80;100.00;101005.09;5072189;28;20114;-47
2022/10/25 00:57:19;;;;;;;;;;;;;;;12.80;100.00;101013.03;5073171;28;20044;-52
2022/10/25 00:59:49;;;;;;;11.52;4.90;;;;;;;12.79;100.00;101007.84;5072510;28;19974;-52
2022/10/25 01:02:18;;;;;;;12.25;4.88;;;;;;;12.84;100.00;101014.50;5069761;28;20507;-51
2022/10/25 01:04:48;;;;;;;13.30;4.95;;;;;;;12.87;100.00;101017.84;5068730;28;20067;-52
2022/10/25 01:07:17;;;;;;;10.32;4.32;;;;;;;12.87;100.00;101018.72;5072131;28;20044;-52
2022/10/25 01:09:45;;;;;;;10.95;4.65;;;;;;;12.88;100.00;101017.72;5072223;28;20044;-50
2022/10/25 01:12:13;;;;;;;10.13;4.30;;;;;;;12.90;100.00;101026.41;5072226;28;20048;-52
2022/10/25 01:14:45;;;;;;;10.68;4.28;;;;;;;12.91;100.00;101024.59;5071842;28;20044;-49
2022/10/25 01:17:18;;;;;;;10.18;4.70;;;;;;;12.92;100.00;101031.56;5071913;28;20044;-51
2022/10/25 01:20:10;;;;;;;15.45;4.90;;;;;;;12.94;100.00;101030.50;5071688;28;20380;-50
2022/10/25 01:22:42;;;;;;;15.15;4.80;;;;;;;12.93;100.00;101017.41;5069429;28;20079;-51
2022/10/25 01:25:21;;;;;;;;;;;;;;;12.96;100.00;101023.28;5068244;28;20048;-49
2022/10/25 01:28:03;;;;;;;13.57;4.88;;;;;;;13.01;100.00;101028.25;5069301;28;20428;-52
2022/10/25 01:30:59;;;;;;;11.50;4.93;;;;;;;13.01;100.00;101025.63;5072375;28;20064;-51
2022/10/25 01:33:32;;;;;;;14.73;5.25;;;;;;;13.00;100.00;101024.75;5072348;28;20044;-50
2022/10/25 01:36:06;;;;;;;12.43;5.15;;;;;;;12.99;100.00;101020.47;5072252;28;20044;-52
2022/10/25 01:38:43;;;;;;;12.30;5.32;;;;;;;13.03;100.00;101023.69;5072029;28;20049;-54
2022/10/25 01:41:21;;;;;;;12.32;5.05;;;;;;;13.05;100.00;101026.22;5072285;28;20068;-51
2022/10/25 01:44:04;;;;;;;14.75;5.13;;;;;;;13.05;100.00;101029.72;5071658;28;20060;-52
2022/10/25 01:46:44;;;;;;;11.50;5.05;;;;;;;13.05;100.00;101026.22;5071873;28;20036;-50
2022/10/25 01:49:18;;;;;;;11.55;5.18;;;;;;;13.02;100.00;101028.16;5072053;28;20056;-49
2022/10/25 01:51:46;;;;;;;12.90;4.32;;;;;;;13.04;100.00;101029.84;5070496;28;20048;-52
2022/10/25 01:54:20;;;;;;;16.30;4.82;;;;;;;13.05;100.00;101029.72;5071841;28;20573;-51
2022/10/25 01:57:00;;;;;;;11.75;4.40;;;;;;;13.06;100.00;101030.56;5071529;28;20037;-48
2022/10/25 01:59:43;;;;;;;10.30;4.60;;;;;;;13.08;100.00;101033.94;5070801;28;20044;-52
2022/10/25 02:02:23;;;;;;;13.77;4.47;;;;;;;13.08;100.00;101031.31;5068488;28;21211;-53
2022/10/25 02:05:02;;;;;;;14.38;4.13;;;;;;;13.09;100.00;101032.97;5070520;28;20056;-51
2022/10/25 02:07:36;;;;;;;14.95;5.00;;;;;;;13.08;100.00;101032.13;5074427;28;20507;-49
2022/10/25 02:10:08;;;;;;;12.73;4.55;;;;;;;13.07;100.00;101030.44;5075843;28;20052;-49
2022/10/25 02:12:51;;;;;;;9.73;3.90;;;;;;;13.08;100.00;101031.31;5075748;28;20518;-53
2022/10/25 02:15:27;;;;;;;14.48;4.05;;;;;;;13.08;100.00;101028.66;5075651;28;20461;-51
2022/10/25 02:17:59;;;;;;;12.73;4.00;;;;;;;13.08;100.00;101031.31;5075061;28;20045;-52
2022/10/25 02:20:32;;;;;;;9.30;4.10;;;;;;;13.07;100.00;101029.59;5072262;28;20044;-50
2022/10/25 02:23:04;;;;;;;17.90;4.88;;;;;;;13.09;100.00;101036.47;5072501;28;20491;-52
2022/10/25 02:25:34;;;;;;;12.23;4.07;;;;;;;13.08;100.00;101032.13;5071527;28;20044;-51
2022/10/25 02:28:07;;;;;;;15.98;4.43;;;;;;;13.10;100.00;101029.38;5074207;28;20111;-49
2022/10/25 02:30:38;;;;;;;11.50;4.20;;;;;;;13.11;100.00;101026.63;5075553;28;20101;-50
2022/10/25 02:33:08;;;;;;;13.85;4.00;;;;;;;13.11;100.00;101031.06;5075490;28;20522;-51
2022/10/25 02:35:36;;;;;;;12.07;4.60;;;;;;;13.11;100.00;101031.06;5074061;28;20048;-51
2022/10/25 02:38:04;;;;;;;11.38;4.15;;;;;;;13.09;100.00;101025.91;5072284;28;20047;-52
2022/10/25 02:40:32;;;;;;;15.95;5.38;;;;;;;13.13;100.00;101021.22;5071399;28;20518;-50
2022/10/25 02:43:01;;;;;;;12.88;3.88;;;;;;;13.14;100.00;101031.69;5071498;28;20048;-53
2022/10/25 02:45:29;;;;;;;15.32;4.38;;;;;;;13.12;100.00;101038.03;5075171;28;20569;-51
2022/10/25 02:47:57;;;;;;;15.80;4.53;;;;;;;13.10;100.00;101037.28;5075150;28;20215;-51
2022/10/25 02:50:27;;;;;;;16.63;4.82;;;;;;;13.13;100.00;101047.63;5075014;28;20120;-51
2022/10/25 02:52:55;;;;;;;13.60;4.90;;;;;;;13.15;100.00;101049.22;5075204;28;20044;-51
2022/10/25 02:55:23;;;;;;;17.00;5.15;;;;;;;13.17;100.00;101042.03;5074812;28;20051;-51
2022/10/25 02:57:51;;;;;;;20.00;5.43;;;;;;;13.16;100.00;101044.78;5074855;28;20045;-49
2022/10/25 03:00:19;;;;;;;17.65;5.88;;;;;;;13.15;100.00;101041.28;5075067;28;20048;-52
2022/10/25 03:02:47;;;;;;;16.05;6.38;;;;;;;13.18;100.00;101053.41;5074797;28;20048;-50
2022/10/25 03:05:16;;;;;;;12.80;5.93;;;;;;;13.16;100.00;101055.34;5074930;28;20040;-51
2022/10/25 03:07:46;;;;;;;17.10;6.13;;;;;;;13.15;100.00;101053.66;5072032;28;20544;-48
2022/10/25 03:10:14;;;;;;;14.02;6.05;;;;;;;13.16;100.00;101056.19;5070794;28;20044;-52
2022/10/25 03:12:42;;;;;;;14.38;5.60;;;;;;;13.14;100.00;101065.16;5073356;28;20142;-49
2022/10/25 03:15:10;;;;;;;13.35;6.03;;;;;;;13.14;100.00;101059.88;5074831;28;20376;-52
2022/10/25 03:17:39;;;;;;;17.88;6.40;;;;;;;13.17;100.00;101062.28;5074448;28;20075;-48
2022/10/25 03:20:08;;;;;;;19.55;6.00;;;;;;;13.14;100.00;101067.81;5074555;28;20056;-52
2022/10/25 03:22:37;;;;;;;15.60;6.20;;;;;;;13.11;100.00;101068.88;5074643;28;20052;-51
2022/10/25 03:25:07;;;;;;;13.65;5.80;;;;;;;13.12;100.00;101075.00;5074526;28;20075;-52
2022/10/25 03:27:41;;;;;;;15.40;7.07;;;;;;;13.07;100.00;101072.69;5074260;28;20041;-50
2022/10/25 03:30:09;;;;;;;14.80;7.13;;;;;;;13.08;100.00;101076.19;5074259;28;20044;-51
2022/10/25 03:32:37;;;;;;;17.00;6.15;;;;;;;13.10;100.00;101072.47;5072969;28;20159;-52
2022/10/25 03:35:07;;;;;;;15.52;6.35;;;;;;;13.14;100.00;101078.38;5072912;28;20048;-51
2022/10/25 03:37:35;;;;;;;16.83;6.50;;;;;;;13.12;100.00;101086.41;5074157;28;20049;-51
2022/10/25 03:40:04;;;;;;;19.50;7.15;;;;;;;13.11;100.00;101094.44;5073688;28;20044;-50
2022/10/25 03:42:33;;;;;;;16.42;7.38;;;;;;;13.12;100.00;101094.31;5073754;28;20052;-51
2022/10/25 03:45:01;;;;;;;15.98;6.60;;;;;;;13.08;100.00;101090.22;5073679;28;20404;-52
2022/10/25 03:47:29;;;;;;;14.20;6.25;;;;;;;13.09;100.00;101096.34;5073627;28;20119;-52
2022/10/25 03:49:57;;;;;;;16.98;7.07;;;;;;;13.09;100.00;101101.63;5072786;28;20098;-53
2022/10/25 03:52:26;;;;;;;16.65;6.80;;;;;;;13.13;100.00;101103.06;5070500;28;20097;-53
2022/10/25 03:54:54;;;;;;;16.20;6.70;;;;;;;13.15;100.00;101109.09;5069173;28;20060;-52
2022/10/25 03:57:22;;;;;;;15.63;6.57;;;;;;;13.11;100.00;101124.31;5072699;28;20048;-50
2022/10/25 03:59:52;;;;;;;14.60;6.18;;;;;;;13.13;100.00;101124.19;5073774;28;20139;-51
2022/10/25 04:02:20;;;;;;;15.07;7.35;;;;;;;13.11;100.00;101129.59;5073656;28;20098;-52
2022/10/25 04:04:48;;;;;;;15.07;6.60;;;;;;;13.11;100.00;101126.97;5073753;28;20057;-53
2022/10/25 04:07:16;;;;;;;14.82;6.53;;;;;;;13.13;100.00;101129.47;5073352;28;20040;-49
2022/10/25 04:09:45;;;;;;;17.23;6.30;;;;;;;13.14;100.00;101131.19;5073384;28;20052;-50
2022/10/25 04:12:13;;;;;;;18.75;6.80;;;;;;;13.13;100.00;101130.34;5073379;28;20113;-50
2022/10/25 04:14:41;;;;;;;14.45;6.43;;;;;;;13.16;100.00;101145.97;5073255;28;20048;-47
2022/10/25 04:17:11;;;;;;;12.55;5.80;;;;;;;13.16;100.00;101138.03;5073185;28;20408;-48
2022/10/25 04:19:39;;;;;;;14.80;6.03;;;;;;;13.19;100.00;101142.25;5071939;28;20114;-49
2022/10/25 04:22:07;;;;;;;15.43;6.47;;;;;;;13.21;100.00;101144.78;5072991;28;20491;-53
2022/10/25 04:24:35;;;;;;;15.55;6.30;;;;;;;13.18;100.00;101143.22;5073374;28;20048;-51
2022/10/25 04:27:03;;;;;;;13.40;5.82;;;;;;;13.19;100.00;101147.53;5072983;28;20380;-47
2022/10/25 04:29:31;;;;;;;15.30;6.75;;;;;;;13.19;100.00;101148.38;5072562;28;20037;-47
2022/10/25 04:31:59;;;;;;;13.55;5.95;;;;;;;13.16;100.00;101145.97;5072718;28;20068;-51
2022/10/25 04:34:29;;;;;;;11.90;5.97;;;;;;;13.14;100.00;101145.25;5072586;28;20392;-53
2022/10/25 04:36:57;;;;;;;15.18;6.45;;;;;;;13.15;100.00;101144.28;5072506;28;20072;-50
2022/10/25 04:39:25;;;;;;;13.82;6.00;;;;;;;13.16;100.00;101143.31;5069310;28;20040;-51
2022/10/25 04:41:53;;;;;;;14.25;5.70;;;;;;;13.18;100.00;101148.50;5069931;28;20394;-47
2022/10/25 04:44:22;;;;;;;14.00;5.57;;;;;;;13.15;100.00;101149.56;5070951;28;20042;-50
2022/10/25 04:46:50;;;;;;;11.07;5.40;;;;;;;13.09;100.00;101152.66;5072075;28;20048;-50
2022/10/25 04:49:18;;;;;;;14.93;6.00;;;;;;;13.13;100.00;101146.19;5069402;28;20045;-51
2022/10/25 04:51:48;;;;;;;14.70;5.80;;;;;;;13.16;100.00;101155.69;5071868;28;20049;-52
2022/10/25 04:54:21;;;;;;;18.92;6.72;;;;;;;13.14;100.00;101157.59;5071397;28;20580;-52
2022/10/25 04:56:49;;;;;;;14.88;5.93;;;;;;;13.12;100.00;101156.88;5072555;28;20044;-52
2022/10/25 04:59:17;;;;;;;13.93;6.10;;;;;;;13.10;100.00;101166.69;5072687;28;20052;-52
2022/10/25 05:01:45;;;;;;;12.23;6.00;;;;;;;13.06;100.00;101166.06;5072686;28;20435;-53
2022/10/25 05:04:14;;;;;;;15.93;6.43;;;;;;;13.08;100.00;101173.88;5072626;28;20078;-52
2022/10/25 05:06:42;;;;;;;14.82;6.18;;;;;;;13.04;100.00;101178.53;5072252;28;20045;-52
2022/10/25 05:09:11;;;;;;;14.75;6.72;;;;;;;13.07;100.00;101169.53;5071758;28;20044;-49
2022/10/25 05:11:41;;;;;;;13.60;6.85;;;;;;;13.03;100.00;101166.25;5070363;28;20040;-50
2022/10/25 05:14:09;;;;;;;13.18;7.28;;;;;;;13.04;100.00;101172.41;5072003;28;20044;-49
2022/10/25 05:16:38;;;;;;;14.43;6.72;;;;;;;13.01;100.00;101171.66;5072298;28;20045;-49
2022/10/25 05:19:06;;;;;;;19.00;7.63;;;;;;;13.00;100.00;101175.25;5072287;28;20116;-51
2022/10/25 05:21:34;;;;;;;16.15;7.30;;;;;;;12.99;100.00;101176.22;5072398;28;20040;-51
2022/10/25 05:24:02;;;;;;;12.25;6.70;;;;;;;13.01;100.00;101174.28;5070579;28;20482;-50
2022/10/25 05:26:34;;;;;;;15.40;6.65;;;;;;;13.05;100.00;101176.72;5069212;28;20051;-51
2022/10/25 05:29:02;;;;;;;15.13;6.30;;;;;;;13.03;100.00;101174.19;5070922;28;20048;-51
2022/10/25 05:31:39;;;;;;;11.55;6.20;;;;;;;12.98;100.00;101182.44;5071523;28;20541;-48
2022/10/25 05:34:09;;;;;;;13.77;6.60;;;;;;;13.02;100.00;101191.00;5068376;28;20124;-51
2022/10/25 05:36:38;;;;;;;14.43;6.68;;;;;;;13.01;100.00;101192.78;5070363;28;20049;-52
2022/10/25 05:39:06;;;;;;;13.18;6.47;;;;;;;13.01;100.00;101192.78;5072086;28;20037;-52
2022/10/25 05:41:35;;;;;;;12.52;6.28;;;;;;;13.00;100.00;101193.72;5073114;28;20044;-52
2022/10/25 05:44:04;;;;;;;12.88;5.20;;;;;;;12.99;100.00;101197.34;5076283;28;20056;-53
2022/10/25 05:46:33;;;;;;;13.18;5.28;;;;;;;13.04;100.00;101198.81;5076651;28;20078;-52
2022/10/25 05:49:01;;;;;;;14.63;5.88;;;;;;;12.99;100.00;101202.63;5076078;28;20497;-53
2022/10/25 05:51:31;;;;;;;12.90;4.95;;;;;;;13.04;100.00;101198.81;5075082;28;20106;-51
2022/10/25 05:54:05;;;;;;;14.00;4.93;;;;;;;12.99;100.00;101202.63;5071546;28;20414;-52
2022/10/25 05:56:36;;;;;;;15.45;5.00;;;;;;;13.01;100.00;101205.16;5074577;28;20052;-52
2022/10/25 05:59:07;;;;;;;16.05;5.90;;;;;;;12.93;100.00;101205.66;5076014;28;20040;-52
2022/10/25 06:01:36;;;;;;;10.18;5.20;;;;;;;12.98;100.00;101211.47;5075934;28;20048;-51
2022/10/25 06:04:05;;;;;;;12.77;5.03;;;;;;;13.02;100.00;101212.13;5075902;28;20045;-52
2022/10/25 06:06:34;;;;;;;12.57;6.00;;;;;;;12.97;100.00;101214.22;5076029;28;20430;-52
2022/10/25 06:09:03;;;;;;;13.30;5.60;;;;;;;12.98;100.00;101224.69;5075613;28;20105;-51
2022/10/25 06:11:32;;;;;;;13.50;5.78;;;;;;;12.98;100.00;101223.84;5075666;28;20056;-53
2022/10/25 06:14:01;;;;;;;12.07;5.28;;;;;;;12.97;100.00;101214.22;5074482;28;20140;-51
2022/10/25 06:16:30;;;;;;;15.38;5.90;;;;;;;12.90;100.00;101227.00;5075907;28;20458;-52
2022/10/25 06:19:00;;;;;;;15.45;5.90;;;;;;;12.91;100.00;101223.44;5075500;28;20498;-49
2022/10/25 06:21:30;;;;;;;9.95;5.13;;;;;;;12.92;100.00;101217.16;5075273;28;20498;-52
2022/10/25 06:23:59;;;;;;;16.90;5.90;;;;;;;12.90;100.00;101226.13;5075246;28;20549;-49
2022/10/25 06:26:29;;;;;;;16.52;6.07;;;;;;;12.92;100.00;101235.66;5075219;28;20047;-50
2022/10/25 06:29:02;;;;;;;11.40;6.10;;;;;;;12.89;100.00;101243.78;5075438;28;20174;-51
2022/10/25 06:31:32;;;;;;;13.73;6.45;;;;;;;12.90;100.00;101240.19;5075515;28;20102;-50
2022/10/25 06:34:00;;;;;;;13.05;6.30;;;;;;;12.81;100.00;101256.66;5075205;28;20426;-49
2022/10/25 06:36:29;;;;;;;14.02;6.38;;;;;;;12.85;100.00;101252.88;5074134;28;20114;-51
2022/10/25 06:38:58;;;;;;;15.60;6.03;;;;;;;12.84;100.00;101253.81;5075283;28;20101;-51
2022/10/25 06:41:35;;;;;;;11.35;5.20;;;;;;;12.85;100.00;101263.44;5074955;28;20040;-48
2022/10/25 06:44:06;;;;;;;11.07;5.78;;;;;;;12.87;100.00;101261.53;5075043;28;20052;-52
2022/10/25 06:46:36;;;;;;;15.68;5.63;;;;;;;12.88;100.00;101270.28;5075470;28;20043;-52
2022/10/25 06:49:25;;;;;;;12.95;5.60;;;;;;;12.90;100.00;101276.28;5075001;28;20123;-49
2022/10/25 06:51:53;;;;;;;12.95;6.13;;;;;;;12.92;100.00;101277.88;5073947;28;20511;-50
2022/10/25 06:54:21;;;;;;;13.18;6.38;;;;;;;12.94;100.00;101278.63;5074064;28;20418;-51
2022/10/25 06:56:49;;;;;;;11.48;6.20;;;;;;;12.93;100.00;101284.03;5074133;28;20127;-51
2022/10/25 06:59:20;;;;;;;13.18;5.78;;;;;;;12.92;100.00;101285.81;5073329;28;20075;-49
2022/10/25 07:01:48;;;;;;;11.40;5.88;;;;;;;12.95;100.00;101284.75;5074887;28;20098;-51
2022/10/25 07:04:17;;;;;;;12.48;5.82;;;;;;;12.94;100.00;101293.63;5073117;28;20037;-50
2022/10/25 07:06:46;;;;;;;15.02;6.60;;;;;;;12.95;100.00;101301.47;5071360;28;20458;-51
2022/10/25 07:09:20;;;;;;;13.40;6.18;;;;;;;12.92;100.00;101296.38;5073636;28;20529;-51
2022/10/25 07:11:48;;;;;;;10.93;6.07;;;;;;;12.97;100.00;101307.47;5072958;28;20091;-50
2022/10/25 07:14:20;;;;;;;14.23;6.35;;;;;;;12.93;100.00;101308.63;5074622;28;20040;-51
2022/10/25 07:16:48;;;;;;;17.45;6.68;;;;;;;12.94;100.00;101306.81;5074794;28;20052;-52
2022/10/25 07:19:17;;;;;;;12.13;6.10;;;;;;;12.99;100.00;101304.72;5074613;28;20086;-48
2022/10/25 07:21:45;;;;;;;13.80;6.57;;;;;;;12.99;100.00;101307.34;5074427;28;20045;-52
2022/10/25 07:24:13;;;;;;;13.88;6.20;;;;;;;13.00;100.00;101304.59;5074513;28;20467;-48
2022/10/25 07:26:41;;;;;;;11.63;6.47;;;;;;;13.03;100.00;101311.47;5074295;28;20051;-51
2022/10/25 07:29:10;;;;;;;12.43;7.35;;;;;;;13.12;100.00;101315.31;5074179;28;20032;-52
2022/10/25 07:31:42;;;;;;;13.60;7.88;;;;;;;13.19;100.00;101306.00;5074174;28;20036;-51
2022/10/25 07:34:13;;;;;;;13.85;6.93;;;;;;;13.23;100.00;101309.28;5074314;28;20075;-52
2022/10/25 07:36:41;;;;;;;15.10;7.22;;;;;;;13.35;100.00;101308.44;5074114;28;20090;-52
2022/10/25 07:39:09;;;;;;;13.38;6.45;;;;;;;13.30;100.00;101321.94;5074441;28;20048;-53
2022/10/25 07:41:37;;;;;;;13.93;6.55;;;;;;;13.34;100.00;101318.13;5074158;28;20037;-53
2022/10/25 07:44:06;;;;;;;13.50;6.80;;;;;;;13.43;100.00;101321.13;5073936;28;20053;-52
2022/10/25 07:46:43;;;;;;;13.75;6.72;;;;;;;13.52;100.00;101321.34;5073677;28;20127;-49
2022/10/25 07:49:11;;;;;;;13.68;6.60;;;;;;;13.70;100.00;101328.91;5073440;28;20511;-52
2022/10/25 07:51:39;;;;;;;12.88;6.50;;;;;;;13.72;100.00;101324.38;5073412;28;20048;-52
2022/10/25 07:54:10;;;;;;;19.42;6.53;;;;;;;13.73;100.00;101330.50;5073448;28;20071;-50
2022/10/25 07:56:38;;;;;;;13.93;6.57;;;;;;;13.76;100.00;101332.94;5073127;28;20049;-51
2022/10/25 07:59:06;;;;;;;14.73;7.38;;;;;;;13.77;100.00;101334.59;5073328;28;20464;-51
2022/10/25 08:01:36;;;;;;;11.25;6.10;;;;;;;13.77;100.00;101342.53;5073563;28;20050;-51
2022/10/25 08:04:09;;;;;;;13.27;6.50;;;;;;;13.89;100.00;101344.31;5072809;28;20098;-50
2022/10/25 08:06:59;;;;;;;14.55;5.97;;;;;;;13.83;100.00;101348.25;5073416;28;20052;-51
2022/10/25 08:09:47;;;;;;;16.80;6.85;;;;;;;13.81;100.00;101346.66;5073272;28;20400;-51
2022/10/25 08:12:36;;;;;;;14.07;6.18;;;;;;;13.77;100.00;101346.03;5073434;28;20123;-50
2022/10/25 08:15:24;;;;;;;14.30;6.43;;;;;;;13.81;100.00;101351.94;5073461;28;20383;-51
2022/10/25 08:18:12;;;;;;;14.07;6.45;;;;;;;13.77;100.00;101355.75;5073284;28;20044;-51
2022/10/25 08:21:02;;;;;;;11.13;6.25;;;;;;;13.80;100.00;101355.56;5073218;28;20135;-51
2022/10/25 08:23:51;;;;;;;12.90;6.85;;;;;;;13.84;100.00;101359.69;5070118;28;20056;-53
2022/10/25 08:26:39;;;;;;;13.77;6.95;;;;;;;13.77;100.00;101366.31;5069571;28;20076;-53
2022/10/25 08:29:30;;;;;;;12.07;6.80;;;;;;;13.84;100.00;101364.97;5073058;28;20059;-53
2022/10/25 08:32:18;;;;;;;17.98;6.63;;;;;;;13.85;100.00;101369.28;5073169;28;20487;-54
2022/10/25 08:35:06;;;;;;;16.48;8.18;;;;;;;13.84;100.00;101376.38;5073092;28;20491;-52
2022/10/25 08:37:56;;;;;;;14.00;8.02;;;;;;;13.85;100.00;101370.13;5072666;28;20048;-53
2022/10/25 08:40:54;;;;;;;15.23;7.43;;;;;;;13.84;100.00;101372.91;5070619;28;20053;-52
2022/10/25 08:43:32;;;;;;;16.95;9.07;;;;;;;13.86;100.00;101365.69;5069085;28;20135;-52
2022/10/25 08:46:28;;;;;;;14.85;8.30;;;;;;;13.88;100.00;101369.06;5072726;28;20061;-53
2022/10/25 08:49:24;;;;;;;20.75;9.88;;;;;;;13.94;100.00;101373.91;5072516;28;20056;-51
2022/10/25 08:52:00;;;;;;;18.77;10.35;;;;;;;13.96;100.00;101381.72;5072100;28;20052;-52
2022/10/25 08:54:50;;;;;;;18.55;10.18;;;;;;;13.93;100.00;101377.50;5068018;28;20060;-52
2022/10/25 08:57:31;;;;;;;19.52;10.10;;;;;;;14.02;100.00;101381.31;5071473;28;20391;-52
2022/10/25 09:00:21;;;;;;;16.10;9.70;;;;;;;14.10;100.00;101384.25;5072485;28;20456;-52
2022/10/25 09:03:15;;;;;;;15.65;9.55;;;;;;;14.13;100.00;101389.31;5072515;28;20083;-53
2022/10/25 09:06:04;;;;;;;14.50;9.80;;;;;;;14.16;100.00;101396.19;5072727;28;20143;-49
2022/10/25 09:09:06;;;;;;;19.08;9.98;;;;;;;14.22;100.00;101400.19;5072169;28;20062;-50
2022/10/25 09:12:08;;;;;;;14.68;9.93;;;;;;;14.22;100.00;101409.00;5072248;28;20048;-53
2022/10/25 09:15:05;;;;;;;16.73;9.52;;;;;;;14.27;100.00;101417.41;5072010;28;20060;-54
2022/10/25 09:17:43;;;;;;;19.63;10.90;;;;;;;14.27;100.00;101416.59;5072733;28;20044;-49
2022/10/25 09:20:24;;;;;;;14.57;10.77;;;;;;;14.30;100.00;101413.72;5070701;28;20117;-52
2022/10/25 09:23:23;;;;;;;16.23;11.27;;;;;;;14.34;100.00;101420.47;5071694;28;20045;-52
2022/10/25 09:26:20;;;;;;;16.95;10.82;;;;;;;14.36;100.00;101423.88;5069698;28;20140;-53
2022/10/25 09:29:24;;;;;;;17.92;11.43;;;;;;;14.45;100.00;101430.28;5068132;28;20063;-49
2022/10/25 09:32:19;;;;;;;14.23;10.57;;;;;;;14.48;100.00;101435.34;5071948;28;20059;-49
2022/10/25 09:35:17;;;;;;;16.52;11.02;;;;;;;14.48;100.00;101430.06;5071918;28;20046;-52
2022/10/25 09:38:12;;;;;;;17.10;11.15;;;;;;;14.52;100.00;101437.69;5072028;28;20566;-49
2022/10/25 09:40:55;;;;;;;18.27;11.75;;;;;;;14.62;100.00;101437.00;5069545;28;20045;-52
2022/10/25 09:43:49;;;;;;;17.40;10.32;;;;;;;14.72;100.00;101442.50;5067799;28;20465;-52
2022/10/25 09:46:43;;;;;;;19.50;10.18;;;;;;;14.69;100.00;101431.16;5071803;28;20442;-53
2022/10/25 09:49:38;;;;;;;21.05;12.00;;;;;;;14.74;100.00;101430.00;5071942;28;20060;-50
2022/10/25 09:52:31;;;;;;;19.30;10.73;;;;;;;14.79;100.00;101433.16;5071933;28;20052;-59
2022/10/25 09:55:32;;;;;;;16.88;9.52;;;;;;;14.85;100.00;101427.41;5071772;28;20052;-53
2022/10/25 09:58:01;;;;;;;14.98;9.15;;;;;;;14.99;100.00;101427.22;5070475;28;20049;-52
2022/10/25 10:00:51;;;;;;;15.82;9.50;;;;;;;15.19;100.00;101430.19;5071826;28;20048;-53
2022/10/25 10:03:21;;;;;;;13.50;8.90;;;;;;;15.39;100.00;101428.66;5071827;28;20048;-53
2022/10/25 10:06:21;;;;;;;14.70;9.25;;;;;;;15.69;100.00;101421.94;5072166;28;20044;-53
2022/10/25 10:08:53;;;;;;;14.95;9.43;;;;;;;15.52;100.00;101434.72;5071839;28;20499;-54
2022/10/25 10:11:24;;;;;;;16.02;9.07;;;;;;;15.75;100.00;101431.22;5072143;28;20497;-53
2022/10/25 10:14:03;;;;;;;20.75;9.77;;;;;;;15.69;100.00;101449.34;5070398;28;20045;-53
2022/10/25 10:16:57;;;;;;;13.82;8.32;;;;;;;15.66;100.00;101446.91;5071507;28;20068;-53
2022/10/25 10:20:09;;;;;;;16.35;9.75;;;;;;;15.67;100.00;101445.94;5068235;28;20051;-52
2022/10/25 10:22:44;;;;;;;16.38;8.68;;;;;;;15.90;100.00;101453.97;5068463;28;20041;-52
2022/10/25 10:25:28;;;;;;;16.83;8.85;;;;;;;16.15;100.00;101446.72;5069300;28;20032;-58
2022/10/25 10:27:57;;;;;;;13.60;8.63;;;;;;;16.27;100.00;101448.38;5069114;28;20060;-59
2022/10/25 10:30:53;;;;;;;15.43;9.00;;;;;;;16.44;100.00;101448.84;5071714;28;20363;-58
2022/10/25 10:33:39;;;;;;;14.38;8.73;;;;;;;16.51;100.00;101452.69;5071669;28;20037;-58
2022/10/25 10:36:30;;;;;;;13.70;8.40;;;;;;;16.62;100.00;101454.47;5072605;28;20048;-58
2022/10/25 10:39:21;;;;;;;12.50;7.68;;;;;;;16.77;100.00;101455.91;5070772;28;20515;-58
2022/10/25 10:42:01;;;;;;;13.23;7.30;;;;;;;16.88;100.00;101457.69;5071155;28;20072;-55
2022/10/25 10:44:33;;;;;;;14.23;7.60;;;;;;;17.19;100.00;101457.81;5074226;28;20044;-53
2022/10/25 10:47:10;;;;;;;14.00;7.70;;;;;;;17.39;100.00;101462.28;5070084;28;20063;-53
2022/10/25 10:49:40;;;;;;;16.23;7.90;;;;;;;17.58;100.00;101452.75;5071585;28;20052;-52
2022/10/25 10:52:30;;;;;;;13.10;7.75;;;;;;;17.43;100.00;101456.72;5074726;28;20040;-54
2022/10/25 10:54:59;;;;;;;14.00;7.43;;;;;;;17.84;100.00;101460.31;5074373;28;20051;-59
2022/10/25 10:57:32;;;;;;;14.18;7.20;;;;;;;17.90;100.00;101454.44;5074554;28;20063;-60
2022/10/25 11:00:01;;;;;;;15.05;7.32;;;;;;;17.61;100.00;101457.81;5074554;28;20045;-54
2022/10/25 11:02:39;;;;;;;14.85;7.03;;;;;;;17.52;100.00;101455.91;5071738;28;20071;-59
2022/10/25 11:05:25;;;;;;;13.68;6.68;;;;;;;17.51;100.00;101462.22;5070550;28;20056;-59
2022/10/25 11:07:59;;;;;;;10.60;6.78;;;;;;;17.40;100.00;101469.28;5070901;28;20118;-59
2022/10/25 11:10:32;;;;;;;11.40;6.72;;;;;;;17.46;100.00;101472.41;5070934;28;20098;-59
2022/10/25 11:13:12;;;;;;;14.98;6.75;;;;;;;17.48;100.00;101466.00;5074571;28;20040;-59
2022/10/25 11:16:12;;;;;;;10.52;6.18;;;;;;;17.47;100.00;101466.13;5070617;28;20052;-60
2022/10/25 11:18:54;;;;;;;12.63;6.57;;;;;;;17.68;100.00;101463.44;5070626;28;20121;-60
2022/10/25 11:21:35;;;;;;;17.65;6.20;;;;;;;17.57;100.00;101472.34;5070555;28;20049;-60
2022/10/25 11:24:13;;;;;;;12.18;5.55;;;;;;;17.30;100.00;101473.72;5069037;28;20435;-60
2022/10/25 11:26:53;;;;;;;12.73;5.90;;;;;;;17.45;100.00;101473.38;5070573;28;20101;-59
2022/10/25 11:29:43;;;;;;;11.13;5.38;;;;;;;17.44;100.00;101475.19;5070478;28;20059;-60
2022/10/25 11:32:35;;;;;;;10.05;5.32;;;;;;;17.31;100.00;101480.69;5073036;28;20048;-55
2022/10/25 11:35:25;;;;;;;13.20;5.85;;;;;;;17.31;100.00;101480.69;5072888;28;20071;-60
2022/10/25 11:37:59;;;;;;;14.63;5.78;;;;;;;17.48;100.00;101476.63;5071728;28;20443;-60
2022/10/25 11:40:32;;;;;;;12.55;4.95;;;;;;;17.53;100.00;101473.56;5067577;28;20071;-61
2022/10/25 11:43:20;;;;;;;10.95;4.90;;;;;;;17.78;100.00;101474.13;5069530;28;20118;-60
2022/10/25 11:45:56;;;;;;;9.35;4.75;;;;;;;17.57;100.00;101470.53;5072313;28;20052;-60